sensor_id;sensor_type;location;lat;lon;timestamp;P1;durP1;ratioP1;P2;durP2;ratioP2
64653;SDS011;51065;48.884;12.598;2022-08-19T00:01:43;19.92;;;9.57;;
64653;SDS011;51065;48.884;12.598;2022-08-19T00:04:12;20.13;;;10.07;;
64653;SDS011;51065;48.884;12.598;2022-08-19T00:06:40;19.25;;;10.20;;
64653;SDS011;51065;48.884;12.598;2022-08-19T00:09:08;18.52;;;9.68;;
64653;SDS011;51065;48.884;12.598;2022-08-19T00:11:36;18.80;;;9.75;;
64653;SDS011;51065;48.884;12.598;2022-08-19T00:14:02;17.63;;;9.02;;
64653;SDS011;51065;48.884;12.598;2022-08-19T00:16:31;18.70;;;9.98;;
64653;SDS011;51065;48.884;12.598;2022-08-19T00:18:57;17.15;;;9.68;;
64653;SDS011;51065;48.884;12.598;2022-08-19T00:21:22;17.88;;;9.52;;
64653;SDS011;51065;48.884;12.598;2022-08-19T00:23:49;18.20;;;9.70;;
64653;SDS011;51065;48.884;12.598;2022-08-19T00:26:15;20.10;;;9.85;;
64653;SDS011;51065;48.884;12.598;2022-08-19T00:28:41;19.17;;;10.43;;
64653;SDS011;51065;48.884;12.598;2022-08-19T00:31:07;19.05;;;10.30;;
64653;SDS011;51065;48.884;12.598;2022-08-19T00:33:34;22.02;;;11.68;;
64653;SDS011;51065;48.884;12.598;2022-08-19T00:36:04;17.60;;;9.18;;
64653;SDS011;51065;48.884;12.598;2022-08-19T00:38:32;19.27;;;10.35;;
64653;SDS011;51065;48.884;12.598;2022-08-19T00:40:59;20.42;;;9.93;;
64653;SDS011;51065;48.884;12.598;2022-08-19T00:43:25;18.48;;;9.93;;
64653;SDS011;51065;48.884;12.598;2022-08-19T00:45:52;20.23;;;10.45;;
64653;SDS011;51065;48.884;12.598;2022-08-19T00:48:18;18.48;;;10.05;;
64653;SDS011;51065;48.884;12.598;2022-08-19T00:50:45;19.63;;;10.10;;
64653;SDS011;51065;48.884;12.598;2022-08-19T00:53:14;19.98;;;9.85;;
64653;SDS011;51065;48.884;12.598;2022-08-19T00:55:47;20.55;;;10.65;;
64653;SDS011;51065;48.884;12.598;2022-08-19T00:58:15;19.20;;;10.77;;
64653;SDS011;51065;48.884;12.598;2022-08-19T01:00:43;19.63;;;10.35;;
64653;SDS011;51065;48.884;12.598;2022-08-19T01:03:11;18.02;;;10.45;;
64653;SDS011;51065;48.884;12.598;2022-08-19T01:05:40;19.98;;;10.93;;
64653;SDS011;51065;48.884;12.598;2022-08-19T01:08:07;19.58;;;11.25;;
64653;SDS011;51065;48.884;12.598;2022-08-19T01:10:36;19.58;;;10.98;;
64653;SDS011;51065;48.884;12.598;2022-08-19T01:13:10;21.27;;;11.18;;
64653;SDS011;51065;48.884;12.598;2022-08-19T01:15:42;21.45;;;11.30;;
64653;SDS011;51065;48.884;12.598;2022-08-19T01:18:12;22.40;;;11.90;;
64653;SDS011;51065;48.884;12.598;2022-08-19T01:20:40;20.20;;;11.20;;
64653;SDS011;51065;48.884;12.598;2022-08-19T01:23:07;21.42;;;11.73;;
64653;SDS011;51065;48.884;12.598;2022-08-19T01:25:35;22.00;;;12.40;;
64653;SDS011;51065;48.884;12.598;2022-08-19T01:28:06;23.38;;;12.13;;
64653;SDS011;51065;48.884;12.598;2022-08-19T01:30:33;23.67;;;11.88;;
64653;SDS011;51065;48.884;12.598;2022-08-19T01:33:00;21.63;;;11.80;;
64653;SDS011;51065;48.884;12.598;2022-08-19T01:35:28;21.52;;;11.90;;
64653;SDS011;51065;48.884;12.598;2022-08-19T01:37:59;21.42;;;11.50;;
64653;SDS011;51065;48.884;12.598;2022-08-19T01:40:31;23.05;;;11.90;;
64653;SDS011;51065;48.884;12.598;2022-08-19T01:42:58;21.45;;;12.05;;
64653;SDS011;51065;48.884;12.598;2022-08-19T01:45:25;21.10;;;12.27;;
64653;SDS011;51065;48.884;12.598;2022-08-19T01:47:53;22.23;;;12.98;;
64653;SDS011;51065;48.884;12.598;2022-08-19T01:50:19;20.48;;;11.45;;
64653;SDS011;51065;48.884;12.598;2022-08-19T01:52:45;25.50;;;13.55;;
64653;SDS011;51065;48.884;12.598;2022-08-19T01:55:14;22.17;;;12.65;;
64653;SDS011;51065;48.884;12.598;2022-08-19T01:57:43;23.65;;;12.45;;
64653;SDS011;51065;48.884;12.598;2022-08-19T02:00:11;24.38;;;14.18;;
64653;SDS011;51065;48.884;12.598;2022-08-19T02:02:40;27.77;;;13.75;;
64653;SDS011;51065;48.884;12.598;2022-08-19T02:05:06;20.95;;;12.27;;
64653;SDS011;51065;48.884;12.598;2022-08-19T02:07:33;22.52;;;13.18;;
64653;SDS011;51065;48.884;12.598;2022-08-19T02:10:03;27.15;;;14.25;;
64653;SDS011;51065;48.884;12.598;2022-08-19T02:12:31;24.95;;;14.20;;
64653;SDS011;51065;48.884;12.598;2022-08-19T02:14:58;25.80;;;12.95;;
64653;SDS011;51065;48.884;12.598;2022-08-19T02:17:23;26.05;;;13.35;;
64653;SDS011;51065;48.884;12.598;2022-08-19T02:19:49;22.38;;;13.13;;
64653;SDS011;51065;48.884;12.598;2022-08-19T02:22:15;21.70;;;11.93;;
64653;SDS011;51065;48.884;12.598;2022-08-19T02:24:40;24.15;;;14.43;;
64653;SDS011;51065;48.884;12.598;2022-08-19T02:27:06;24.25;;;15.32;;
64653;SDS011;51065;48.884;12.598;2022-08-19T02:29:31;27.05;;;15.73;;
64653;SDS011;51065;48.884;12.598;2022-08-19T02:31:57;27.55;;;16.75;;
64653;SDS011;51065;48.884;12.598;2022-08-19T02:34:23;27.20;;;15.90;;
64653;SDS011;51065;48.884;12.598;2022-08-19T02:36:50;30.85;;;17.05;;
64653;SDS011;51065;48.884;12.598;2022-08-19T02:39:16;25.40;;;15.52;;
64653;SDS011;51065;48.884;12.598;2022-08-19T02:41:41;27.05;;;15.32;;
64653;SDS011;51065;48.884;12.598;2022-08-19T02:44:07;23.95;;;14.93;;
64653;SDS011;51065;48.884;12.598;2022-08-19T02:46:33;25.05;;;15.38;;
64653;SDS011;51065;48.884;12.598;2022-08-19T02:49:00;25.92;;;14.20;;
64653;SDS011;51065;48.884;12.598;2022-08-19T02:51:31;25.30;;;14.80;;
64653;SDS011;51065;48.884;12.598;2022-08-19T02:53:59;27.90;;;15.30;;
64653;SDS011;51065;48.884;12.598;2022-08-19T02:56:25;26.35;;;15.38;;
64653;SDS011;51065;48.884;12.598;2022-08-19T02:58:52;27.15;;;15.98;;
64653;SDS011;51065;48.884;12.598;2022-08-19T03:01:20;26.75;;;15.43;;
64653;SDS011;51065;48.884;12.598;2022-08-19T03:03:50;26.80;;;15.68;;
64653;SDS011;51065;48.884;12.598;2022-08-19T03:06:16;25.05;;;15.45;;
64653;SDS011;51065;48.884;12.598;2022-08-19T03:08:43;26.08;;;15.52;;
64653;SDS011;51065;48.884;12.598;2022-08-19T03:11:13;28.90;;;15.98;;
64653;SDS011;51065;48.884;12.598;2022-08-19T03:13:43;25.00;;;16.02;;
64653;SDS011;51065;48.884;12.598;2022-08-19T03:16:09;28.42;;;16.50;;
64653;SDS011;51065;48.884;12.598;2022-08-19T03:18:37;26.70;;;16.40;;
64653;SDS011;51065;48.884;12.598;2022-08-19T03:21:04;27.50;;;16.13;;
64653;SDS011;51065;48.884;12.598;2022-08-19T03:23:30;28.20;;;16.25;;
64653;SDS011;51065;48.884;12.598;2022-08-19T03:25:55;27.27;;;16.60;;
64653;SDS011;51065;48.884;12.598;2022-08-19T03:28:21;26.38;;;16.08;;
64653;SDS011;51065;48.884;12.598;2022-08-19T03:30:56;27.17;;;16.10;;
64653;SDS011;51065;48.884;12.598;2022-08-19T03:33:33;29.23;;;16.33;;
64653;SDS011;51065;48.884;12.598;2022-08-19T03:36:01;28.58;;;16.25;;
64653;SDS011;51065;48.884;12.598;2022-08-19T03:38:30;26.20;;;15.98;;
64653;SDS011;51065;48.884;12.598;2022-08-19T03:40:57;25.92;;;14.73;;
64653;SDS011;51065;48.884;12.598;2022-08-19T03:43:22;26.40;;;15.68;;
64653;SDS011;51065;48.884;12.598;2022-08-19T03:45:48;28.38;;;16.30;;
64653;SDS011;51065;48.884;12.598;2022-08-19T03:48:14;27.70;;;16.05;;
64653;SDS011;51065;48.884;12.598;2022-08-19T03:50:42;26.60;;;15.63;;
64653;SDS011;51065;48.884;12.598;2022-08-19T03:53:07;27.17;;;15.80;;
64653;SDS011;51065;48.884;12.598;2022-08-19T03:55:33;26.88;;;15.98;;
64653;SDS011;51065;48.884;12.598;2022-08-19T04:00:29;26.23;;;15.15;;
64653;SDS011;51065;48.884;12.598;2022-08-19T04:02:55;26.88;;;14.93;;
64653;SDS011;51065;48.884;12.598;2022-08-19T04:05:20;26.10;;;15.93;;
64653;SDS011;51065;48.884;12.598;2022-08-19T04:07:46;25.25;;;15.65;;
64653;SDS011;51065;48.884;12.598;2022-08-19T04:10:11;27.75;;;17.00;;
64653;SDS011;51065;48.884;12.598;2022-08-19T04:12:37;25.45;;;15.07;;
64653;SDS011;51065;48.884;12.598;2022-08-19T04:15:03;29.00;;;15.27;;
64653;SDS011;51065;48.884;12.598;2022-08-19T04:17:29;24.75;;;15.00;;
64653;SDS011;51065;48.884;12.598;2022-08-19T04:19:55;23.23;;;13.93;;
64653;SDS011;51065;48.884;12.598;2022-08-19T04:22:20;26.02;;;16.48;;
64653;SDS011;51065;48.884;12.598;2022-08-19T04:24:46;25.58;;;15.75;;
64653;SDS011;51065;48.884;12.598;2022-08-19T04:27:11;26.88;;;15.00;;
64653;SDS011;51065;48.884;12.598;2022-08-19T04:29:37;25.67;;;15.07;;
64653;SDS011;51065;48.884;12.598;2022-08-19T04:32:04;26.23;;;15.15;;
64653;SDS011;51065;48.884;12.598;2022-08-19T04:34:30;26.42;;;14.73;;
64653;SDS011;51065;48.884;12.598;2022-08-19T04:36:57;25.42;;;14.57;;
64653;SDS011;51065;48.884;12.598;2022-08-19T04:39:25;25.13;;;14.88;;
64653;SDS011;51065;48.884;12.598;2022-08-19T04:42:12;25.63;;;15.05;;
64653;SDS011;51065;48.884;12.598;2022-08-19T04:44:56;24.88;;;15.43;;
64653;SDS011;51065;48.884;12.598;2022-08-19T04:47:23;26.10;;;16.30;;
64653;SDS011;51065;48.884;12.598;2022-08-19T04:49:49;26.65;;;14.80;;
64653;SDS011;51065;48.884;12.598;2022-08-19T04:52:14;25.40;;;15.02;;
64653;SDS011;51065;48.884;12.598;2022-08-19T04:54:40;25.80;;;15.45;;
64653;SDS011;51065;48.884;12.598;2022-08-19T04:57:06;23.48;;;15.05;;
64653;SDS011;51065;48.884;12.598;2022-08-19T04:59:34;25.77;;;14.63;;
64653;SDS011;51065;48.884;12.598;2022-08-19T05:02:01;26.23;;;15.93;;
64653;SDS011;51065;48.884;12.598;2022-08-19T05:04:27;24.95;;;14.50;;
64653;SDS011;51065;48.884;12.598;2022-08-19T05:06:56;26.33;;;15.35;;
64653;SDS011;51065;48.884;12.598;2022-08-19T05:09:22;25.23;;;15.43;;
64653;SDS011;51065;48.884;12.598;2022-08-19T05:11:48;28.55;;;16.58;;
64653;SDS011;51065;48.884;12.598;2022-08-19T05:14:14;26.65;;;16.40;;
64653;SDS011;51065;48.884;12.598;2022-08-19T05:16:40;25.45;;;14.95;;
64653;SDS011;51065;48.884;12.598;2022-08-19T05:19:05;24.70;;;14.93;;
64653;SDS011;51065;48.884;12.598;2022-08-19T05:21:49;23.75;;;14.63;;
64653;SDS011;51065;48.884;12.598;2022-08-19T05:24:34;25.80;;;14.88;;
64653;SDS011;51065;48.884;12.598;2022-08-19T05:27:00;24.45;;;15.18;;
64653;SDS011;51065;48.884;12.598;2022-08-19T05:29:28;25.92;;;15.23;;
64653;SDS011;51065;48.884;12.598;2022-08-19T05:31:56;24.67;;;15.23;;
64653;SDS011;51065;48.884;12.598;2022-08-19T05:34:23;23.45;;;14.82;;
64653;SDS011;51065;48.884;12.598;2022-08-19T05:36:53;24.90;;;15.05;;
64653;SDS011;51065;48.884;12.598;2022-08-19T05:39:22;24.73;;;14.32;;
64653;SDS011;51065;48.884;12.598;2022-08-19T05:41:51;24.77;;;15.25;;
64653;SDS011;51065;48.884;12.598;2022-08-19T05:44:19;23.20;;;13.80;;
64653;SDS011;51065;48.884;12.598;2022-08-19T05:46:46;25.90;;;14.77;;
64653;SDS011;51065;48.884;12.598;2022-08-19T05:49:13;22.85;;;14.13;;
64653;SDS011;51065;48.884;12.598;2022-08-19T05:51:40;22.90;;;14.57;;
64653;SDS011;51065;48.884;12.598;2022-08-19T05:54:06;23.58;;;15.30;;
64653;SDS011;51065;48.884;12.598;2022-08-19T05:56:33;27.38;;;15.77;;
64653;SDS011;51065;48.884;12.598;2022-08-19T05:59:03;26.37;;;16.50;;
64653;SDS011;51065;48.884;12.598;2022-08-19T06:01:33;26.17;;;15.70;;
64653;SDS011;51065;48.884;12.598;2022-08-19T06:03:59;24.73;;;15.40;;
64653;SDS011;51065;48.884;12.598;2022-08-19T06:06:25;24.33;;;14.80;;
64653;SDS011;51065;48.884;12.598;2022-08-19T06:08:51;24.17;;;14.70;;
64653;SDS011;51065;48.884;12.598;2022-08-19T06:11:18;24.38;;;15.43;;
64653;SDS011;51065;48.884;12.598;2022-08-19T06:13:50;23.73;;;15.20;;
64653;SDS011;51065;48.884;12.598;2022-08-19T06:16:18;26.42;;;15.77;;
64653;SDS011;51065;48.884;12.598;2022-08-19T06:18:47;25.10;;;16.02;;
64653;SDS011;51065;48.884;12.598;2022-08-19T06:21:16;27.08;;;15.50;;
64653;SDS011;51065;48.884;12.598;2022-08-19T06:23:46;28.27;;;15.85;;
64653;SDS011;51065;48.884;12.598;2022-08-19T06:26:12;27.70;;;17.00;;
64653;SDS011;51065;48.884;12.598;2022-08-19T06:28:39;24.60;;;15.38;;
64653;SDS011;51065;48.884;12.598;2022-08-19T06:31:11;26.02;;;16.58;;
64653;SDS011;51065;48.884;12.598;2022-08-19T06:33:41;26.58;;;16.30;;
64653;SDS011;51065;48.884;12.598;2022-08-19T06:36:08;25.50;;;15.48;;
64653;SDS011;51065;48.884;12.598;2022-08-19T06:38:41;28.17;;;16.75;;
64653;SDS011;51065;48.884;12.598;2022-08-19T06:41:06;26.50;;;16.08;;
64653;SDS011;51065;48.884;12.598;2022-08-19T06:43:33;27.90;;;15.90;;
64653;SDS011;51065;48.884;12.598;2022-08-19T06:45:59;27.05;;;16.33;;
64653;SDS011;51065;48.884;12.598;2022-08-19T06:48:25;25.23;;;16.15;;
64653;SDS011;51065;48.884;12.598;2022-08-19T06:50:51;25.63;;;16.55;;
64653;SDS011;51065;48.884;12.598;2022-08-19T06:53:17;24.10;;;15.20;;
64653;SDS011;51065;48.884;12.598;2022-08-19T06:55:44;26.63;;;16.95;;
64653;SDS011;51065;48.884;12.598;2022-08-19T06:58:10;26.95;;;16.63;;
64653;SDS011;51065;48.884;12.598;2022-08-19T07:00:35;26.63;;;16.25;;
64653;SDS011;51065;48.884;12.598;2022-08-19T07:03:01;26.83;;;16.27;;
64653;SDS011;51065;48.884;12.598;2022-08-19T07:05:27;23.73;;;15.88;;
64653;SDS011;51065;48.884;12.598;2022-08-19T07:07:52;26.55;;;16.00;;
64653;SDS011;51065;48.884;12.598;2022-08-19T07:10:18;27.10;;;15.48;;
64653;SDS011;51065;48.884;12.598;2022-08-19T07:12:44;23.33;;;14.32;;
64653;SDS011;51065;48.884;12.598;2022-08-19T07:15:10;24.63;;;15.55;;
64653;SDS011;51065;48.884;12.598;2022-08-19T07:17:36;25.95;;;14.10;;
64653;SDS011;51065;48.884;12.598;2022-08-19T07:20:04;27.17;;;15.95;;
64653;SDS011;51065;48.884;12.598;2022-08-19T07:22:32;26.60;;;16.30;;
64653;SDS011;51065;48.884;12.598;2022-08-19T07:24:59;23.58;;;14.77;;
64653;SDS011;51065;48.884;12.598;2022-08-19T07:27:24;25.65;;;15.55;;
64653;SDS011;51065;48.884;12.598;2022-08-19T07:29:50;27.02;;;15.65;;
64653;SDS011;51065;48.884;12.598;2022-08-19T07:32:17;23.08;;;14.15;;
64653;SDS011;51065;48.884;12.598;2022-08-19T07:34:43;25.20;;;15.68;;
64653;SDS011;51065;48.884;12.598;2022-08-19T07:37:10;25.00;;;15.18;;
64653;SDS011;51065;48.884;12.598;2022-08-19T07:39:36;24.60;;;14.63;;
64653;SDS011;51065;48.884;12.598;2022-08-19T07:42:04;29.42;;;16.80;;
64653;SDS011;51065;48.884;12.598;2022-08-19T07:44:33;22.35;;;13.98;;
64653;SDS011;51065;48.884;12.598;2022-08-19T07:46:59;26.33;;;16.30;;
64653;SDS011;51065;48.884;12.598;2022-08-19T07:49:26;25.38;;;14.63;;
64653;SDS011;51065;48.884;12.598;2022-08-19T07:51:55;25.58;;;16.52;;
64653;SDS011;51065;48.884;12.598;2022-08-19T07:54:28;25.25;;;16.33;;
64653;SDS011;51065;48.884;12.598;2022-08-19T07:56:56;24.40;;;15.10;;
64653;SDS011;51065;48.884;12.598;2022-08-19T07:59:23;28.05;;;16.73;;
64653;SDS011;51065;48.884;12.598;2022-08-19T08:01:49;26.23;;;16.33;;
64653;SDS011;51065;48.884;12.598;2022-08-19T08:04:15;25.60;;;15.85;;
64653;SDS011;51065;48.884;12.598;2022-08-19T08:07:00;24.08;;;15.10;;
64653;SDS011;51065;48.884;12.598;2022-08-19T08:09:45;24.85;;;16.05;;
64653;SDS011;51065;48.884;12.598;2022-08-19T08:12:21;26.45;;;16.30;;
64653;SDS011;51065;48.884;12.598;2022-08-19T08:14:53;27.90;;;15.97;;
64653;SDS011;51065;48.884;12.598;2022-08-19T08:17:27;24.30;;;15.45;;
64653;SDS011;51065;48.884;12.598;2022-08-19T08:19:53;26.33;;;16.42;;
64653;SDS011;51065;48.884;12.598;2022-08-19T08:22:20;25.77;;;16.67;;
64653;SDS011;51065;48.884;12.598;2022-08-19T08:27:36;24.10;;;14.63;;
64653;SDS011;51065;48.884;12.598;2022-08-19T08:30:05;25.50;;;16.00;;
64653;SDS011;51065;48.884;12.598;2022-08-19T08:32:36;26.60;;;16.75;;
64653;SDS011;51065;48.884;12.598;2022-08-19T08:35:04;25.55;;;15.60;;
64653;SDS011;51065;48.884;12.598;2022-08-19T08:37:30;24.98;;;14.90;;
64653;SDS011;51065;48.884;12.598;2022-08-19T08:39:56;24.30;;;14.57;;
64653;SDS011;51065;48.884;12.598;2022-08-19T08:42:29;26.90;;;15.13;;
64653;SDS011;51065;48.884;12.598;2022-08-19T08:45:00;24.00;;;14.18;;
64653;SDS011;51065;48.884;12.598;2022-08-19T08:47:31;24.95;;;14.88;;
64653;SDS011;51065;48.884;12.598;2022-08-19T08:50:04;23.55;;;14.15;;
64653;SDS011;51065;48.884;12.598;2022-08-19T08:52:33;24.20;;;14.57;;
64653;SDS011;51065;48.884;12.598;2022-08-19T08:55:07;25.33;;;14.45;;
64653;SDS011;51065;48.884;12.598;2022-08-19T09:00:34;24.38;;;15.73;;
64653;SDS011;51065;48.884;12.598;2022-08-19T09:03:03;24.38;;;15.25;;
64653;SDS011;51065;48.884;12.598;2022-08-19T09:05:42;24.00;;;15.40;;
64653;SDS011;51065;48.884;12.598;2022-08-19T09:10:54;25.17;;;14.95;;
64653;SDS011;51065;48.884;12.598;2022-08-19T09:16:18;22.90;;;13.70;;
64653;SDS011;51065;48.884;12.598;2022-08-19T09:18:52;23.02;;;13.07;;
64653;SDS011;51065;48.884;12.598;2022-08-19T09:21:23;23.23;;;14.45;;
64653;SDS011;51065;48.884;12.598;2022-08-19T09:23:50;24.02;;;14.18;;
64653;SDS011;51065;48.884;12.598;2022-08-19T09:26:16;24.02;;;13.90;;
64653;SDS011;51065;48.884;12.598;2022-08-19T09:28:44;24.73;;;15.05;;
64653;SDS011;51065;48.884;12.598;2022-08-19T09:31:12;23.48;;;14.38;;
64653;SDS011;51065;48.884;12.598;2022-08-19T09:33:39;21.90;;;13.80;;
64653;SDS011;51065;48.884;12.598;2022-08-19T09:36:06;23.27;;;14.00;;
64653;SDS011;51065;48.884;12.598;2022-08-19T09:38:34;23.58;;;14.75;;
64653;SDS011;51065;48.884;12.598;2022-08-19T09:41:04;24.70;;;15.10;;
64653;SDS011;51065;48.884;12.598;2022-08-19T09:43:32;21.33;;;12.45;;
64653;SDS011;51065;48.884;12.598;2022-08-19T09:46:02;27.95;;;16.02;;
64653;SDS011;51065;48.884;12.598;2022-08-19T09:48:30;25.23;;;15.68;;
64653;SDS011;51065;48.884;12.598;2022-08-19T09:51:02;21.73;;;13.75;;
64653;SDS011;51065;48.884;12.598;2022-08-19T09:53:32;22.27;;;12.95;;
64653;SDS011;51065;48.884;12.598;2022-08-19T09:56:02;20.58;;;11.77;;
64653;SDS011;51065;48.884;12.598;2022-08-19T09:58:29;20.33;;;11.65;;
64653;SDS011;51065;48.884;12.598;2022-08-19T10:00:56;20.98;;;12.38;;
64653;SDS011;51065;48.884;12.598;2022-08-19T10:03:23;23.08;;;12.73;;
64653;SDS011;51065;48.884;12.598;2022-08-19T10:05:49;22.42;;;12.50;;
64653;SDS011;51065;48.884;12.598;2022-08-19T10:08:16;25.13;;;14.02;;
64653;SDS011;51065;48.884;12.598;2022-08-19T10:10:47;24.15;;;13.98;;
64653;SDS011;51065;48.884;12.598;2022-08-19T10:13:14;22.08;;;13.02;;
64653;SDS011;51065;48.884;12.598;2022-08-19T10:15:42;21.98;;;12.63;;
64653;SDS011;51065;48.884;12.598;2022-08-19T10:18:08;24.75;;;13.18;;
64653;SDS011;51065;48.884;12.598;2022-08-19T10:20:34;22.70;;;12.60;;
64653;SDS011;51065;48.884;12.598;2022-08-19T10:23:03;21.83;;;12.32;;
64653;SDS011;51065;48.884;12.598;2022-08-19T10:25:28;22.52;;;13.18;;
64653;SDS011;51065;48.884;12.598;2022-08-19T10:27:54;23.50;;;13.02;;
64653;SDS011;51065;48.884;12.598;2022-08-19T10:30:20;21.33;;;13.07;;
64653;SDS011;51065;48.884;12.598;2022-08-19T10:32:46;22.77;;;13.77;;
64653;SDS011;51065;48.884;12.598;2022-08-19T10:35:12;22.27;;;13.05;;
64653;SDS011;51065;48.884;12.598;2022-08-19T10:37:38;21.70;;;14.15;;
64653;SDS011;51065;48.884;12.598;2022-08-19T10:40:05;22.08;;;13.00;;
64653;SDS011;51065;48.884;12.598;2022-08-19T10:42:32;22.58;;;12.98;;
64653;SDS011;51065;48.884;12.598;2022-08-19T10:44:58;21.10;;;13.10;;
64653;SDS011;51065;48.884;12.598;2022-08-19T10:47:24;19.90;;;12.05;;
64653;SDS011;51065;48.884;12.598;2022-08-19T10:49:50;20.80;;;12.27;;
64653;SDS011;51065;48.884;12.598;2022-08-19T10:52:39;20.58;;;11.90;;
64653;SDS011;51065;48.884;12.598;2022-08-19T10:55:05;21.77;;;13.18;;
64653;SDS011;51065;48.884;12.598;2022-08-19T10:57:51;21.50;;;12.77;;
64653;SDS011;51065;48.884;12.598;2022-08-19T11:00:17;20.85;;;12.05;;
64653;SDS011;51065;48.884;12.598;2022-08-19T11:02:44;21.48;;;11.57;;
64653;SDS011;51065;48.884;12.598;2022-08-19T11:05:11;19.38;;;11.98;;
64653;SDS011;51065;48.884;12.598;2022-08-19T11:07:38;20.60;;;11.05;;
64653;SDS011;51065;48.884;12.598;2022-08-19T11:10:05;19.65;;;11.77;;
64653;SDS011;51065;48.884;12.598;2022-08-19T11:12:38;20.17;;;11.45;;
64653;SDS011;51065;48.884;12.598;2022-08-19T11:15:05;19.08;;;11.93;;
64653;SDS011;51065;48.884;12.598;2022-08-19T11:17:35;20.52;;;12.20;;
64653;SDS011;51065;48.884;12.598;2022-08-19T11:20:02;20.15;;;10.95;;
64653;SDS011;51065;48.884;12.598;2022-08-19T11:22:30;20.08;;;12.90;;
64653;SDS011;51065;48.884;12.598;2022-08-19T11:24:55;19.08;;;11.82;;
64653;SDS011;51065;48.884;12.598;2022-08-19T11:27:21;19.08;;;11.00;;
64653;SDS011;51065;48.884;12.598;2022-08-19T11:29:47;19.25;;;12.13;;
64653;SDS011;51065;48.884;12.598;2022-08-19T11:32:12;19.00;;;11.80;;
64653;SDS011;51065;48.884;12.598;2022-08-19T11:34:38;21.02;;;11.73;;
64653;SDS011;51065;48.884;12.598;2022-08-19T11:37:04;18.30;;;10.75;;
64653;SDS011;51065;48.884;12.598;2022-08-19T11:39:31;18.38;;;11.40;;
64653;SDS011;51065;48.884;12.598;2022-08-19T11:41:58;21.30;;;11.75;;
64653;SDS011;51065;48.884;12.598;2022-08-19T11:44:24;19.23;;;11.30;;
64653;SDS011;51065;48.884;12.598;2022-08-19T11:46:50;19.83;;;11.65;;
64653;SDS011;51065;48.884;12.598;2022-08-19T11:49:17;17.17;;;10.25;;
64653;SDS011;51065;48.884;12.598;2022-08-19T11:51:45;18.45;;;10.07;;
64653;SDS011;51065;48.884;12.598;2022-08-19T11:54:12;17.42;;;10.90;;
64653;SDS011;51065;48.884;12.598;2022-08-19T11:56:41;19.25;;;11.48;;
64653;SDS011;51065;48.884;12.598;2022-08-19T11:59:07;18.75;;;11.73;;
64653;SDS011;51065;48.884;12.598;2022-08-19T12:01:33;21.10;;;12.38;;
64653;SDS011;51065;48.884;12.598;2022-08-19T12:03:59;17.25;;;10.32;;
64653;SDS011;51065;48.884;12.598;2022-08-19T12:06:26;20.25;;;12.43;;
64653;SDS011;51065;48.884;12.598;2022-08-19T12:09:02;20.13;;;12.02;;
64653;SDS011;51065;48.884;12.598;2022-08-19T12:11:30;19.15;;;12.05;;
64653;SDS011;51065;48.884;12.598;2022-08-19T12:13:55;18.20;;;10.82;;
64653;SDS011;51065;48.884;12.598;2022-08-19T12:16:23;20.75;;;12.35;;
64653;SDS011;51065;48.884;12.598;2022-08-19T12:18:51;21.38;;;12.90;;
64653;SDS011;51065;48.884;12.598;2022-08-19T12:21:19;18.48;;;10.55;;
64653;SDS011;51065;48.884;12.598;2022-08-19T12:23:47;17.85;;;10.48;;
64653;SDS011;51065;48.884;12.598;2022-08-19T12:26:16;20.13;;;12.77;;
64653;SDS011;51065;48.884;12.598;2022-08-19T12:28:43;19.40;;;11.00;;
64653;SDS011;51065;48.884;12.598;2022-08-19T12:31:09;16.77;;;10.38;;
64653;SDS011;51065;48.884;12.598;2022-08-19T12:33:38;20.38;;;11.32;;
64653;SDS011;51065;48.884;12.598;2022-08-19T12:36:06;17.55;;;11.48;;
64653;SDS011;51065;48.884;12.598;2022-08-19T12:38:33;18.52;;;12.02;;
64653;SDS011;51065;48.884;12.598;2022-08-19T12:40:59;18.00;;;10.88;;
64653;SDS011;51065;48.884;12.598;2022-08-19T12:43:25;16.13;;;10.02;;
64653;SDS011;51065;48.884;12.598;2022-08-19T12:45:52;21.67;;;11.77;;
64653;SDS011;51065;48.884;12.598;2022-08-19T12:48:17;20.67;;;11.27;;
64653;SDS011;51065;48.884;12.598;2022-08-19T12:50:44;20.48;;;10.77;;
64653;SDS011;51065;48.884;12.598;2022-08-19T12:53:10;19.30;;;10.48;;
64653;SDS011;51065;48.884;12.598;2022-08-19T12:55:36;19.45;;;10.70;;
64653;SDS011;51065;48.884;12.598;2022-08-19T12:58:02;18.48;;;10.65;;
64653;SDS011;51065;48.884;12.598;2022-08-19T13:00:28;18.83;;;10.55;;
64653;SDS011;51065;48.884;12.598;2022-08-19T13:02:55;18.50;;;10.73;;
64653;SDS011;51065;48.884;12.598;2022-08-19T13:05:21;18.50;;;10.68;;
64653;SDS011;51065;48.884;12.598;2022-08-19T13:07:52;17.98;;;11.35;;
64653;SDS011;51065;48.884;12.598;2022-08-19T13:10:23;19.33;;;11.75;;
64653;SDS011;51065;48.884;12.598;2022-08-19T13:12:52;18.35;;;11.68;;
64653;SDS011;51065;48.884;12.598;2022-08-19T13:15:19;19.35;;;11.93;;
64653;SDS011;51065;48.884;12.598;2022-08-19T13:17:47;19.15;;;11.43;;
64653;SDS011;51065;48.884;12.598;2022-08-19T13:20:15;18.15;;;10.70;;
64653;SDS011;51065;48.884;12.598;2022-08-19T13:22:43;18.98;;;11.55;;
64653;SDS011;51065;48.884;12.598;2022-08-19T13:25:10;17.60;;;9.38;;
64653;SDS011;51065;48.884;12.598;2022-08-19T13:27:37;20.52;;;11.88;;
64653;SDS011;51065;48.884;12.598;2022-08-19T13:30:03;19.13;;;10.82;;
64653;SDS011;51065;48.884;12.598;2022-08-19T13:32:49;17.25;;;10.00;;
64653;SDS011;51065;48.884;12.598;2022-08-19T13:35:33;18.88;;;10.43;;
64653;SDS011;51065;48.884;12.598;2022-08-19T13:37:59;19.05;;;10.10;;
64653;SDS011;51065;48.884;12.598;2022-08-19T13:40:25;18.85;;;10.05;;
64653;SDS011;51065;48.884;12.598;2022-08-19T13:42:53;17.70;;;9.13;;
64653;SDS011;51065;48.884;12.598;2022-08-19T13:45:20;16.38;;;9.93;;
64653;SDS011;51065;48.884;12.598;2022-08-19T13:47:49;21.27;;;10.70;;
64653;SDS011;51065;48.884;12.598;2022-08-19T13:50:17;15.60;;;9.75;;
64653;SDS011;51065;48.884;12.598;2022-08-19T13:55:12;17.33;;;8.50;;
64653;SDS011;51065;48.884;12.598;2022-08-19T13:57:39;19.85;;;8.85;;
64653;SDS011;51065;48.884;12.598;2022-08-19T14:00:06;15.65;;;8.70;;
64653;SDS011;51065;48.884;12.598;2022-08-19T14:02:35;17.27;;;8.98;;
64653;SDS011;51065;48.884;12.598;2022-08-19T14:05:03;18.38;;;9.02;;
64653;SDS011;51065;48.884;12.598;2022-08-19T14:07:30;14.82;;;8.00;;
64653;SDS011;51065;48.884;12.598;2022-08-19T14:09:56;14.75;;;8.18;;
64653;SDS011;51065;48.884;12.598;2022-08-19T14:12:21;15.48;;;8.05;;
64653;SDS011;51065;48.884;12.598;2022-08-19T14:14:47;14.77;;;7.60;;
64653;SDS011;51065;48.884;12.598;2022-08-19T14:17:12;11.52;;;6.85;;
64653;SDS011;51065;48.884;12.598;2022-08-19T14:19:38;15.15;;;7.38;;
64653;SDS011;51065;48.884;12.598;2022-08-19T14:22:03;15.90;;;8.15;;
64653;SDS011;51065;48.884;12.598;2022-08-19T14:24:30;16.30;;;8.68;;
64653;SDS011;51065;48.884;12.598;2022-08-19T14:26:57;15.60;;;8.75;;
64653;SDS011;51065;48.884;12.598;2022-08-19T14:29:23;16.73;;;8.68;;
64653;SDS011;51065;48.884;12.598;2022-08-19T14:31:49;14.88;;;8.20;;